CheckWX is a tool to help pilots better visualize weather data.  It is not intended as a substitute for an official pre-flight weather briefing.

03:38:59 UTC

PACV METAR
Merle K (Mudhole) Smith Airport
Cordova, Alaska, USA
Current

46 mins ago

PACV 200253Z 12008KT 3SM RA BR OVC026 07/04 A2956 RMK AO2 SLP010 P0018 60029 T00670044 53001
Observed
Nov-20 @ 02:53 UTC
Wind
  • 120° at 8 KTS
Visibility
3 SM
Flight Rules
MVFR
Conditions
Rain, Mist
Cloud Levels
  • Overcast at 2,600' AGL
Temperature
C / 45°F
Dewpoint
C / 39°F
Humidity
81%
Altimeter
29.56" Hg
Pressure
1001.02 hPa
Current Rain
0.18"
Previous

2 hours ago

PACV 200153Z 10011G17KT 4SM -RA BR OVC035 07/04 A2953 RMK AO2 SLP000 P0005 T00670039
Observed
Nov-20 @ 01:53 UTC
Wind
  • 100° at 11 KTS
  • Gusting to 17 KTS
Visibility
4 SM
Flight Rules
MVFR
Conditions
Light Rain, Mist
Cloud Levels
  • Overcast at 3,500' AGL
Temperature
C / 45°F
Dewpoint
C / 39°F
Humidity
81%
Altimeter
29.53" Hg
Pressure
1000.02 hPa
Current Rain
0.05"
Previous

3 hours ago

PACV 200053Z 11013G19KT 6SM -RA OVC038 07/03 A2956 RMK AO2 PK WND 10027/0015 SLP009 P0006 T00670033
Observed
Nov-20 @ 00:53 UTC
Wind
  • 110° at 13 KTS
  • Gusting to 19 KTS
Visibility
6 SM
Flight Rules
VFR
Conditions
Light Rain
Cloud Levels
  • Overcast at 3,800' AGL
Temperature
C / 45°F
Dewpoint
C / 37°F
Humidity
76%
Altimeter
29.56" Hg
Pressure
1001.02 hPa
Current Rain
0.06"